»·PEaware :: N368AA KSAN-KLAX

N368AA :: KSAN-KLAX

FLIGHT INFORMATION

Flight Status: Arrived
Operator: Privately registered:
United States
More flights under this callsign
Pilot: Don H. (15606)
Aircraft: BOEING 767-300
(B763)
More flights by this aircraft type
Origin: KSAN San Diego Intl-Lindbergh
United States
Destination: KLAX Los Angeles Intl
United States
More flights between these airports :: More routes between these airports
Route: +PEBLE6 SLI
File this flight plan on PilotEdge
Remarks: EQUIP G A
Altitude:
(Current/Filed)
12,000ft
Speed:
(Current/Filed)
330kts
Departed: 04-Jun-17 08:46 AM
Arrived: 04-Jun-17 09:41 AM
Distance/Time
Traveled:
94nm/0:54
Distance/Time
To Go:
Arrived

Flight Plot

Page will automatically refresh every two minutes.


Map Options




Map Legend


Flown Route
Filed Route
Departure Airport
Arrival Airport
Navaid (VOR, NDB)
Fix

Horizontal Profiles

Position Reports

Time Latitude Longitude Heading Altitude Ground
Speed
04-Jun-17 08:07 32.733181 -117.195615 226 28ft 0kts
04-Jun-17 08:08 32.733181 -117.195615 226 28ft 0kts
04-Jun-17 08:09 32.733181 -117.195615 226 28ft 0kts
04-Jun-17 08:10 32.733181 -117.195615 226 28ft 0kts
04-Jun-17 08:11 32.733181 -117.195615 226 28ft 0kts
04-Jun-17 08:12 32.733181 -117.195615 226 28ft 0kts
04-Jun-17 08:13 32.733181 -117.195615 226 28ft 0kts
04-Jun-17 08:14 32.733181 -117.195615 226 28ft 0kts
04-Jun-17 08:15 32.733181 -117.195615 226 28ft 0kts
04-Jun-17 08:16 32.733181 -117.195615 226 28ft 0kts
04-Jun-17 08:17 32.733181 -117.195615 226 28ft 0kts
04-Jun-17 08:18 32.733181 -117.195615 226 28ft 0kts
04-Jun-17 08:19 32.733181 -117.195615 226 28ft 0kts
04-Jun-17 08:20 32.733181 -117.195615 226 28ft 0kts
04-Jun-17 08:21 32.733181 -117.195615 226 28ft 0kts
04-Jun-17 08:22 32.733181 -117.195615 226 28ft 0kts
04-Jun-17 08:23 32.733181 -117.195615 226 28ft 0kts
04-Jun-17 08:24 32.733181 -117.195615 226 28ft 0kts
04-Jun-17 08:25 32.733181 -117.195615 226 28ft 0kts
04-Jun-17 08:26 32.733181 -117.195615 226 28ft 0kts
04-Jun-17 08:27 32.733275 -117.195515 204 28ft 1kts
04-Jun-17 08:28 32.733673 -117.195687 112 28ft 1kts
04-Jun-17 08:29 32.733672 -117.195684 112 28ft 0kts
04-Jun-17 08:30 32.733672 -117.195684 112 28ft 0kts
04-Jun-17 08:31 32.733672 -117.195684 112 28ft 0kts
04-Jun-17 08:32 32.733181 -117.195615 226 28ft 0kts
04-Jun-17 08:33 32.733181 -117.195615 226 28ft 0kts
04-Jun-17 08:34 32.733205 -117.195586 225 28ft 2kts
04-Jun-17 08:35 32.733629 -117.195585 110 28ft 0kts
04-Jun-17 08:36 32.733622 -117.195562 110 28ft 0kts
04-Jun-17 08:37 32.733622 -117.195562 110 28ft 0kts
04-Jun-17 08:38 32.733622 -117.195562 110 28ft 0kts
04-Jun-17 08:39 32.733622 -117.195562 110 28ft 0kts
04-Jun-17 08:40 32.733622 -117.195562 110 28ft 0kts
04-Jun-17 08:41 32.733343 -117.193496 93 28ft 18kts
04-Jun-17 08:42 32.729920 -117.178959 105 28ft 15kts
04-Jun-17 08:43 32.729674 -117.177955 106 28ft 0kts
04-Jun-17 08:44 32.729674 -117.177955 106 28ft 0kts
04-Jun-17 08:45 32.729674 -117.177955 106 28ft 0kts
04-Jun-17 08:46 32.730092 -117.176522 343 28ft 12kts
04-Jun-17 08:47 32.730442 -117.177020 289 28ft 0kts
04-Jun-17 08:48 32.734782 -117.194603 285 530ft 171kts
04-Jun-17 08:49 32.727644 -117.246502 278 2800ft 220kts
04-Jun-17 08:50 32.753400 -117.293928 293 5332ft 234kts
04-Jun-17 08:51 32.763306 -117.351626 265 7898ft 172kts
04-Jun-17 08:52 32.745984 -117.403346 229 10587ft 172kts
04-Jun-17 08:53 32.707277 -117.463711 264 10021ft 265kts
04-Jun-17 08:54 32.744081 -117.536010 311 10001ft 264kts
04-Jun-17 08:55 32.802888 -117.586446 331 10001ft 265kts
04-Jun-17 08:56 32.867530 -117.628321 331 10000ft 264kts
04-Jun-17 08:57 32.931894 -117.670010 331 10000ft 264kts
04-Jun-17 08:58 32.996533 -117.711870 331 10000ft 264kts
04-Jun-17 08:59 33.061001 -117.753615 331 10000ft 264kts
04-Jun-17 09:00 33.121708 -117.792918 331 10000ft 264kts
04-Jun-17 09:01 33.186292 -117.834726 331 10000ft 264kts
04-Jun-17 09:02 33.255353 -117.863853 343 10000ft 264kts
04-Jun-17 09:03 33.325851 -117.888699 343 10001ft 264kts
04-Jun-17 09:04 33.396158 -117.913468 343 10001ft 264kts
04-Jun-17 09:05 33.471397 -117.939963 343 10001ft 285kts
04-Jun-17 09:06 33.545460 -117.966035 343 9993ft 274kts
04-Jun-17 09:07 33.616585 -117.991062 343 9054ft 273kts
04-Jun-17 09:08 33.673514 -118.011086 343 7658ft 244kts
04-Jun-17 09:09 33.725517 -118.029372 343 7051ft 270kts
04-Jun-17 09:10 33.791542 -118.052581 343 7031ft 299kts
04-Jun-17 09:11 33.843119 -118.070706 343 6273ft 264kts
04-Jun-17 09:12 33.885144 -118.085470 343 4987ft 214kts
04-Jun-17 09:13 33.927762 -118.100439 343 3700ft 196kts
04-Jun-17 09:14 33.965473 -118.113680 343 3052ft 226kts
04-Jun-17 09:15 33.996232 -118.134939 292 2993ft 207kts
04-Jun-17 09:16 33.988450 -118.170448 231 3146ft 168kts
04-Jun-17 09:17 33.972213 -118.198868 260 2987ft 163kts
04-Jun-17 09:18 33.972657 -118.230173 254 3112ft 163kts
04-Jun-17 09:19 33.969662 -118.259728 284 3499ft 129kts
04-Jun-17 09:20 33.970341 -118.289825 261 3125ft 194kts
04-Jun-17 09:21 33.965070 -118.333808 262 3025ft 209kts
04-Jun-17 09:22 33.945123 -118.373554 191 3027ft 209kts
04-Jun-17 09:23 33.900936 -118.375043 217 3031ft 209kts
04-Jun-17 09:24 33.857495 -118.378334 124 3045ft 209kts
04-Jun-17 09:25 33.848829 -118.330461 97 3027ft 209kts
04-Jun-17 09:26 33.841810 -118.281236 102 3019ft 209kts
04-Jun-17 09:27 33.842501 -118.237195 81 3027ft 209kts
04-Jun-17 09:28 33.848486 -118.187362 81 3018ft 209kts
04-Jun-17 09:29 33.854208 -118.139759 81 3067ft 239kts
04-Jun-17 09:30 33.860172 -118.090208 81 3021ft 240kts
04-Jun-17 09:31 33.880229 -118.051816 17 2998ft 223kts
04-Jun-17 09:32 33.916610 -118.054157 344 3008ft 209kts
04-Jun-17 09:33 33.942679 -118.079544 295 3022ft 209kts
04-Jun-17 09:34 33.951022 -118.118959 281 3021ft 209kts
04-Jun-17 09:35 33.956630 -118.156068 272 2988ft 194kts
04-Jun-17 09:36 33.955417 -118.189654 251 3006ft 189kts
04-Jun-17 09:37 33.951757 -118.221843 268 2776ft 186kts
04-Jun-17 09:38 33.949971 -118.253912 264 2422ft 165kts
04-Jun-17 09:39 33.947450 -118.282955 263 1834ft 153kts
04-Jun-17 09:40 33.944234 -118.315749 263 1245ft 145kts
04-Jun-17 09:41 33.940702 -118.350502 263 695ft 144kts
04-Jun-17 09:42 33.937463 -118.382127 262 190ft 144kts
04-Jun-17 09:43 33.936290 -118.398532 287 136ft 3kts
04-Jun-17 09:44 33.936294 -118.398545 287 136ft 0kts
04-Jun-17 09:45 33.936335 -118.398677 291 136ft 15kts
04-Jun-17 09:46 33.936628 -118.400574 264 136ft 0kts
04-Jun-17 09:47 33.936621 -118.400656 264 136ft 0kts
04-Jun-17 09:48 33.936548 -118.402942 281 136ft 17kts
04-Jun-17 09:49 33.938181 -118.405251 354 136ft 0kts
04-Jun-17 09:50 33.938198 -118.405253 354 136ft 2kts
04-Jun-17 09:51 33.939360 -118.402679 83 136ft 23kts
04-Jun-17 09:52 33.939441 -118.401653 84 136ft 8kts
04-Jun-17 09:53 33.939638 -118.399099 82 136ft 8kts
04-Jun-17 09:54 33.940193 -118.397874 52 136ft 5kts
04-Jun-17 09:55 33.940310 -118.397700 51 136ft 0kts
04-Jun-17 09:56 33.940310 -118.397700 51 136ft 0kts
04-Jun-17 09:57 33.940310 -118.397700 51 136ft 0kts

Navigation Log

Ident Type
Flight plan parsing failed, navigation log unavailable